Time;durP1;ratioP1;P1;durP2;ratioP2;P2;SDS_P1;SDS_P2;PMS_P1;PMS_P2;Temp;Humidity;BMP_temperature;BMP_pressure;BME280_temperature;BME280_humidity;BME280_pressure;Samples;Min_cycle;Max_cycle;Signal;HPM_P1;HPM_P2
2023/08/24 00:00:47;;;;;;;2.00;1.90;;;;;;;;;;4977433;28;20046;-78
2023/08/24 00:03:13;;;;;;;2.08;1.98;;;;;;;;;;4980726;28;20035;-79
2023/08/24 00:05:40;;;;;;;2.08;1.98;;;;;;;;;;4977180;28;20062;-79
2023/08/24 00:08:09;;;;;;;2.08;1.98;;;;;;;;;;4980653;28;20026;-78
2023/08/24 00:10:36;;;;;;;2.03;1.92;;;;;;;;;;4983250;28;20018;-80
2023/08/24 00:13:02;;;;;;;2.08;1.98;;;;;;;;;;4992620;28;20037;-79
2023/08/24 00:15:29;;;;;;;2.00;1.90;;;;;;;;;;4992646;28;20042;-79
2023/08/24 00:17:55;;;;;;;2.10;2.00;;;;;;;;;;4993214;28;20027;-79
2023/08/24 00:20:22;;;;;;;2.00;1.90;;;;;;;;;;4981069;28;20042;-80
2023/08/24 00:22:49;;;;;;;1.80;1.70;;;;;;;;;;4961313;28;20090;-80
2023/08/24 00:25:15;;;;;;;1.85;1.75;;;;;;;;;;4961052;28;20023;-80
2023/08/24 00:27:41;;;;;;;2.00;1.90;;;;;;;;;;4961653;28;20029;-80
2023/08/24 00:30:08;;;;;;;1.67;1.58;;;;;;;;;;4961406;28;20102;-79
2023/08/24 00:32:34;;;;;;;2.03;1.92;;;;;;;;;;4979021;28;20422;-79
2023/08/24 00:35:05;;;;;;;1.65;1.55;;;;;;;;;;4976976;28;20023;-79
2023/08/24 00:37:31;;;;;;;2.30;2.20;;;;;;;;;;4970919;28;20015;-80
2023/08/24 00:39:58;;;;;;;2.13;2.03;;;;;;;;;;4975952;28;20054;-80
2023/08/24 00:42:24;;;;;;;2.30;2.20;;;;;;;;;;4961081;28;20015;-80
2023/08/24 00:44:50;;;;;;;2.20;2.10;;;;;;;;;;4976542;28;20019;-79
2023/08/24 00:47:17;;;;;;;2.40;2.30;;;;;;;;;;4960852;28;20031;-79
2023/08/24 00:49:43;;;;;;;2.17;2.08;;;;;;;;;;4975301;28;20034;-80
2023/08/24 00:52:10;;;;;;;1.95;1.85;;;;;;;;;;4975537;28;20042;-80
2023/08/24 00:54:37;;;;;;;2.50;2.38;;;;;;;;;;4975959;28;20465;-79
2023/08/24 00:57:03;;;;;;;2.22;2.13;;;;;;;;;;4975526;28;20050;-80
2023/08/24 00:59:29;;;;;;;2.35;2.22;;;;;;;;;;4976094;28;20022;-80
2023/08/24 01:01:56;;;;;;;2.42;2.33;;;;;;;;;;4971025;28;20027;-79
2023/08/24 01:04:23;;;;;;;2.50;2.30;;;;;;;;;;4975881;28;20039;-80
2023/08/24 01:06:49;;;;;;;2.20;2.10;;;;;;;;;;4976036;28;20019;-80
2023/08/24 01:09:16;;;;;;;2.30;2.20;;;;;;;;;;4976075;28;20125;-80
2023/08/24 01:11:42;;;;;;;2.40;2.30;;;;;;;;;;4974667;28;20041;-80
2023/08/24 01:14:08;;;;;;;2.30;2.20;;;;;;;;;;4975732;28;20143;-80
2023/08/24 01:16:40;;;;;;;2.33;2.22;;;;;;;;;;4975487;28;20007;-80
2023/08/24 01:19:07;;;;;;;2.08;1.98;;;;;;;;;;4995757;28;20023;-80
2023/08/24 01:21:33;;;;;;;2.50;2.30;;;;;;;;;;4988365;28;20482;-80
2023/08/24 01:24:05;;;;;;;2.15;2.05;;;;;;;;;;4975693;28;20034;-81
2023/08/24 01:26:31;;;;;;;2.10;2.00;;;;;;;;;;4968458;28;20019;-80
2023/08/24 01:28:57;;;;;;;2.25;2.08;;;;;;;;;;4975022;28;20030;-80
2023/08/24 01:31:25;;;;;;;2.22;2.13;;;;;;;;;;4959527;28;20147;-80
2023/08/24 01:33:51;;;;;;;2.10;2.00;;;;;;;;;;4982946;28;20026;-80
2023/08/24 01:36:17;;;;;;;2.20;2.10;;;;;;;;;;4960342;28;20538;-79
2023/08/24 01:38:45;;;;;;;2.10;2.00;;;;;;;;;;4977276;28;20034;-80
2023/08/24 01:41:25;;;;;;;2.15;2.05;;;;;;;;;;4976903;28;20249;-79
2023/08/24 01:43:53;;;;;;;2.40;2.20;;;;;;;;;;4976325;28;20030;-79
2023/08/24 01:46:21;;;;;;;1.73;1.63;;;;;;;;;;4976027;28;20033;-79
2023/08/24 01:48:47;;;;;;;2.00;1.90;;;;;;;;;;4977168;28;20398;-80
2023/08/24 01:51:14;;;;;;;2.00;1.90;;;;;;;;;;4970033;28;20018;-80
2023/08/24 01:53:41;;;;;;;2.20;2.10;;;;;;;;;;4975332;28;20034;-80
2023/08/24 01:56:11;;;;;;;2.25;2.15;;;;;;;;;;4975324;28;20085;-80
2023/08/24 01:58:37;;;;;;;2.45;2.35;;;;;;;;;;4975653;28;20031;-81
2023/08/24 02:01:05;;;;;;;2.72;2.53;;;;;;;;;;4978109;28;20029;-80
2023/08/24 02:03:31;;;;;;;3.22;3.00;;;;;;;;;;4979425;28;20047;-80
2023/08/24 02:06:00;;;;;;;3.20;2.95;;;;;;;;;;4996991;28;20087;-81
2023/08/24 02:08:26;;;;;;;2.83;2.70;;;;;;;;;;4984053;28;20102;-80
2023/08/24 02:10:52;;;;;;;3.60;3.30;;;;;;;;;;4992674;28;20027;-80
2023/08/24 02:13:20;;;;;;;3.42;3.13;;;;;;;;;;4996312;28;20015;-81
2023/08/24 02:15:47;;;;;;;3.40;3.20;;;;;;;;;;4976849;28;20038;-79
2023/08/24 02:18:15;;;;;;;2.97;2.78;;;;;;;;;;4979660;28;20034;-79
2023/08/24 02:20:41;;;;;;;3.25;3.05;;;;;;;;;;4974972;28;20030;-79
2023/08/24 02:23:08;;;;;;;3.20;3.00;;;;;;;;;;4975085;28;20031;-79
2023/08/24 02:25:34;;;;;;;3.25;2.95;;;;;;;;;;4957905;28;20054;-79
2023/08/24 02:28:01;;;;;;;3.45;3.25;;;;;;;;;;4975130;28;20019;-79
2023/08/24 02:30:27;;;;;;;3.35;3.15;;;;;;;;;;4974317;28;20023;-79
2023/08/24 02:32:53;;;;;;;3.00;2.80;;;;;;;;;;4970970;28;20478;-79
2023/08/24 02:35:19;;;;;;;3.00;2.80;;;;;;;;;;4963479;28;20035;-79
2023/08/24 02:37:45;;;;;;;2.95;2.75;;;;;;;;;;4978637;28;20026;-80
2023/08/24 02:40:11;;;;;;;3.15;2.95;;;;;;;;;;4981211;28;20026;-79
2023/08/24 02:42:37;;;;;;;3.20;3.00;;;;;;;;;;4980697;28;20027;-79
2023/08/24 02:45:04;;;;;;;2.88;2.67;;;;;;;;;;4975193;28;20174;-79
2023/08/24 02:47:30;;;;;;;2.70;2.60;;;;;;;;;;4979675;28;20448;-79
2023/08/24 02:49:57;;;;;;;2.92;2.72;;;;;;;;;;4979071;28;20379;-78
2023/08/24 02:52:23;;;;;;;3.00;2.80;;;;;;;;;;4978738;28;20023;-80
2023/08/24 02:54:49;;;;;;;2.70;2.50;;;;;;;;;;4962038;28;20084;-79
2023/08/24 02:57:15;;;;;;;3.28;3.08;;;;;;;;;;4980062;28;20023;-80
2023/08/24 02:59:43;;;;;;;3.20;3.00;;;;;;;;;;4963862;28;20022;-79
2023/08/24 03:02:09;;;;;;;2.92;2.72;;;;;;;;;;4978510;28;20035;-79
2023/08/24 03:04:36;;;;;;;3.30;3.10;;;;;;;;;;4980241;28;20026;-79
2023/08/24 03:07:02;;;;;;;3.30;3.10;;;;;;;;;;4963418;28;20054;-79
2023/08/24 03:09:28;;;;;;;2.90;2.70;;;;;;;;;;4979849;28;20019;-79
2023/08/24 03:11:54;;;;;;;2.90;2.70;;;;;;;;;;4978932;28;20058;-80
2023/08/24 03:14:20;;;;;;;2.95;2.75;;;;;;;;;;4982337;28;20041;-79
2023/08/24 03:16:46;;;;;;;3.30;3.10;;;;;;;;;;4985572;28;20038;-78
2023/08/24 03:19:14;;;;;;;3.10;2.90;;;;;;;;;;4979589;28;20054;-77
2023/08/24 03:21:40;;;;;;;3.20;3.00;;;;;;;;;;4977943;28;20477;-76
2023/08/24 03:24:06;;;;;;;3.03;2.83;;;;;;;;;;4977031;28;20034;-77
2023/08/24 03:26:32;;;;;;;3.15;2.95;;;;;;;;;;4977275;28;20112;-77
2023/08/24 03:28:58;;;;;;;3.65;3.35;;;;;;;;;;4977660;28;20027;-78
2023/08/24 03:31:26;;;;;;;3.08;2.88;;;;;;;;;;4962305;28;20035;-79
2023/08/24 03:33:52;;;;;;;3.58;3.38;;;;;;;;;;4977598;28;20018;-76
2023/08/24 03:36:18;;;;;;;3.53;3.33;;;;;;;;;;4960022;28;20594;-76
2023/08/24 03:38:45;;;;;;;3.28;3.08;;;;;;;;;;4977485;28;20018;-78
2023/08/24 03:41:11;;;;;;;3.38;3.17;;;;;;;;;;4978843;28;20037;-79
2023/08/24 03:43:37;;;;;;;3.30;3.10;;;;;;;;;;4974841;28;20030;-78
2023/08/24 03:46:05;;;;;;;3.30;3.10;;;;;;;;;;4960326;28;20368;-79
2023/08/24 03:48:31;;;;;;;2.85;2.67;;;;;;;;;;4996834;28;20015;-81
2023/08/24 03:50:58;;;;;;;3.15;2.95;;;;;;;;;;4996843;28;20035;-79
2023/08/24 03:53:24;;;;;;;3.20;3.00;;;;;;;;;;4978422;28;20046;-79
2023/08/24 03:55:51;;;;;;;3.65;3.35;;;;;;;;;;4959712;28;20038;-79
2023/08/24 03:58:17;;;;;;;2.70;2.50;;;;;;;;;;4978118;28;20042;-79
2023/08/24 04:00:44;;;;;;;3.40;3.20;;;;;;;;;;4977799;28;20107;-80
2023/08/24 04:03:11;;;;;;;3.35;3.10;;;;;;;;;;4982335;28;20023;-80
2023/08/24 04:05:37;;;;;;;3.40;3.20;;;;;;;;;;4979439;28;20030;-80
2023/08/24 04:08:04;;;;;;;3.35;3.08;;;;;;;;;;4978875;28;20027;-80
2023/08/24 04:10:30;;;;;;;3.10;2.90;;;;;;;;;;4979994;28;20155;-80
2023/08/24 04:12:56;;;;;;;3.53;3.30;;;;;;;;;;4979647;28;20023;-80
2023/08/24 04:15:22;;;;;;;3.15;2.95;;;;;;;;;;4962124;28;20106;-79
2023/08/24 04:17:48;;;;;;;3.25;3.05;;;;;;;;;;4982085;28;20031;-79
2023/08/24 04:20:15;;;;;;;3.00;2.80;;;;;;;;;;4977897;28;20054;-79
2023/08/24 04:22:42;;;;;;;3.20;3.00;;;;;;;;;;4978731;28;20045;-79
2023/08/24 04:25:08;;;;;;;2.83;2.70;;;;;;;;;;4977866;28;20150;-79
2023/08/24 04:27:34;;;;;;;3.30;3.10;;;;;;;;;;4980616;28;20027;-78
2023/08/24 04:30:01;;;;;;;3.35;3.15;;;;;;;;;;4989139;28;20023;-79
2023/08/24 04:32:28;;;;;;;3.58;3.28;;;;;;;;;;4989017;28;20037;-77
2023/08/24 04:34:54;;;;;;;3.17;2.97;;;;;;;;;;4966387;28;20055;-77
2023/08/24 04:37:20;;;;;;;3.00;2.80;;;;;;;;;;4982869;28;20474;-77
2023/08/24 04:39:46;;;;;;;3.63;3.35;;;;;;;;;;4989665;28;20061;-77
2023/08/24 04:42:13;;;;;;;3.70;3.45;;;;;;;;;;4959865;28;20030;-77
2023/08/24 04:44:39;;;;;;;3.65;3.35;;;;;;;;;;4960382;28;20378;-78
2023/08/24 04:47:05;;;;;;;3.80;3.50;;;;;;;;;;4978076;28;20027;-78
2023/08/24 04:49:31;;;;;;;3.50;3.30;;;;;;;;;;4978200;28;20425;-78
2023/08/24 04:51:57;;;;;;;3.90;3.60;;;;;;;;;;4960556;28;20450;-78
2023/08/24 04:54:23;;;;;;;3.40;3.20;;;;;;;;;;4971963;28;20022;-78
2023/08/24 04:56:49;;;;;;;3.42;3.20;;;;;;;;;;4997516;28;20042;-79
2023/08/24 04:59:15;;;;;;;3.63;3.33;;;;;;;;;;4990748;28;20470;-78
2023/08/24 05:01:41;;;;;;;4.47;4.15;;;;;;;;;;4993067;28;20006;-78
2023/08/24 05:04:07;;;;;;;4.80;4.30;;;;;;;;;;4978525;28;20043;-79
2023/08/24 05:06:34;;;;;;;5.18;4.78;;;;;;;;;;4983923;28;20090;-79
2023/08/24 05:09:00;;;;;;;5.18;4.78;;;;;;;;;;4991691;28;20026;-78
2023/08/24 05:11:29;;;;;;;4.93;4.53;;;;;;;;;;4975001;28;20090;-80
2023/08/24 05:13:55;;;;;;;5.38;4.97;;;;;;;;;;4990669;28;20019;-79
2023/08/24 05:16:22;;;;;;;5.70;5.03;;;;;;;;;;4988369;28;20026;-76
2023/08/24 05:18:48;;;;;;;4.78;4.45;;;;;;;;;;4990231;28;20023;-77
2023/08/24 05:21:14;;;;;;;4.82;4.43;;;;;;;;;;4988798;28;20035;-77
2023/08/24 05:23:40;;;;;;;4.50;4.10;;;;;;;;;;4977621;28;20055;-80
2023/08/24 05:26:06;;;;;;;4.35;4.05;;;;;;;;;;4986187;28;20093;-77
2023/08/24 05:28:32;;;;;;;4.40;4.10;;;;;;;;;;4958191;28;20470;-78
2023/08/24 05:30:58;;;;;;;4.20;3.90;;;;;;;;;;4977565;28;20027;-78
2023/08/24 05:33:25;;;;;;;4.72;4.32;;;;;;;;;;4987856;28;20035;-77
2023/08/24 05:35:52;;;;;;;3.88;3.60;;;;;;;;;;4994419;28;20026;-78
2023/08/24 05:38:19;;;;;;;3.72;3.53;;;;;;;;;;4975573;28;20038;-76
2023/08/24 05:40:48;;;;;;;3.72;3.42;;;;;;;;;;4975640;28;20026;-79
2023/08/24 05:43:14;;;;;;;4.05;3.75;;;;;;;;;;4975162;28;20502;-77
2023/08/24 05:45:40;;;;;;;3.70;3.40;;;;;;;;;;4957891;28;20413;-77
2023/08/24 05:48:07;;;;;;;4.40;4.10;;;;;;;;;;4975878;28;20494;-78
2023/08/24 05:50:33;;;;;;;4.68;4.20;;;;;;;;;;4958576;28;20038;-78
2023/08/24 05:53:00;;;;;;;5.53;5.03;;;;;;;;;;4976185;28;20094;-78
2023/08/24 05:55:26;;;;;;;5.53;5.10;;;;;;;;;;4976416;28;20455;-79
2023/08/24 05:57:52;;;;;;;5.07;4.68;;;;;;;;;;4977678;28;20027;-79
2023/08/24 06:00:18;;;;;;;5.22;4.78;;;;;;;;;;4975732;28;20101;-79
2023/08/24 06:02:44;;;;;;;4.72;4.30;;;;;;;;;;4980507;28;20485;-77
2023/08/24 06:05:11;;;;;;;5.00;4.60;;;;;;;;;;4986042;28;20081;-76
2023/08/24 06:07:37;;;;;;;5.10;4.70;;;;;;;;;;4959550;28;20050;-77
2023/08/24 06:10:05;;;;;;;5.18;4.78;;;;;;;;;;4981866;28;20034;-78
2023/08/24 06:12:32;;;;;;;5.93;5.10;;;;;;;;;;4985351;28;20390;-77
2023/08/24 06:15:01;;;;;;;5.55;5.05;;;;;;;;;;4987689;28;20043;-78
2023/08/24 06:17:27;;;;;;;5.13;4.72;;;;;;;;;;4982334;28;20045;-77
2023/08/24 06:19:54;;;;;;;5.10;4.75;;;;;;;;;;4986519;28;20034;-77
2023/08/24 06:22:20;;;;;;;4.88;4.57;;;;;;;;;;4984203;28;20166;-77
2023/08/24 06:24:46;;;;;;;5.47;5.00;;;;;;;;;;4979597;28;20034;-77
2023/08/24 06:27:12;;;;;;;5.50;5.00;;;;;;;;;;4979891;28;20033;-77
2023/08/24 06:29:38;;;;;;;5.32;4.82;;;;;;;;;;4962151;28;20035;-77
2023/08/24 06:32:04;;;;;;;6.15;5.75;;;;;;;;;;4979580;28;20513;-78
2023/08/24 06:34:30;;;;;;;5.65;5.15;;;;;;;;;;4987966;28;20134;-77
2023/08/24 06:37:01;;;;;;;5.40;5.00;;;;;;;;;;4980449;28;20035;-78
2023/08/24 06:39:27;;;;;;;5.50;4.97;;;;;;;;;;4963346;28;20054;-78
2023/08/24 06:41:53;;;;;;;5.50;5.10;;;;;;;;;;4980491;28;20081;-79
2023/08/24 06:44:19;;;;;;;4.55;4.25;;;;;;;;;;4981096;28;20030;-78
2023/08/24 06:46:46;;;;;;;5.00;4.60;;;;;;;;;;4979421;28;20026;-77
2023/08/24 06:49:12;;;;;;;5.30;4.90;;;;;;;;;;4980642;28;20022;-77
2023/08/24 06:51:39;;;;;;;4.82;4.43;;;;;;;;;;4981234;28;20037;-78
2023/08/24 06:54:05;;;;;;;5.28;4.88;;;;;;;;;;4978673;28;20123;-75
2023/08/24 06:56:31;;;;;;;4.70;4.40;;;;;;;;;;4978040;28;20453;-76
2023/08/24 06:58:57;;;;;;;4.88;4.35;;;;;;;;;;4978768;28;20030;-76
2023/08/24 07:01:25;;;;;;;5.60;5.18;;;;;;;;;;4980416;28;20031;-76
2023/08/24 07:03:51;;;;;;;5.35;4.93;;;;;;;;;;4992461;28;20045;-76
2023/08/24 07:06:17;;;;;;;5.03;4.63;;;;;;;;;;4980293;28;20038;-75
2023/08/24 07:08:43;;;;;;;4.63;4.22;;;;;;;;;;4980586;28;20018;-75
2023/08/24 07:11:10;;;;;;;5.72;5.22;;;;;;;;;;4980977;28;20030;-75
2023/08/24 07:13:36;;;;;;;5.78;5.18;;;;;;;;;;4979997;28;20041;-75
2023/08/24 07:16:03;;;;;;;4.85;4.43;;;;;;;;;;4980378;28;20022;-76
2023/08/24 07:18:29;;;;;;;5.28;4.85;;;;;;;;;;4979183;28;20106;-76
2023/08/24 07:20:55;;;;;;;5.10;4.60;;;;;;;;;;4959027;28;20548;-76
2023/08/24 07:23:22;;;;;;;5.45;4.95;;;;;;;;;;4960117;28;20046;-77
2023/08/24 07:25:48;;;;;;;5.20;4.78;;;;;;;;;;4977513;28;20022;-75
2023/08/24 07:28:14;;;;;;;5.43;5.03;;;;;;;;;;4976562;28;20098;-76
2023/08/24 07:30:40;;;;;;;5.93;5.15;;;;;;;;;;4976354;28;20026;-76
2023/08/24 07:33:06;;;;;;;5.00;4.68;;;;;;;;;;4988618;28;20030;-77
2023/08/24 07:35:32;;;;;;;5.32;4.93;;;;;;;;;;4994416;28;20113;-77
2023/08/24 07:37:59;;;;;;;5.13;4.72;;;;;;;;;;4984079;28;20090;-77
2023/08/24 07:40:26;;;;;;;5.50;5.10;;;;;;;;;;4978160;28;20502;-77
2023/08/24 07:42:56;;;;;;;6.65;6.13;;;;;;;;;;4977622;28;20037;-78
2023/08/24 07:45:26;;;;;;;8.15;5.93;;;;;;;;;;4972139;28;20027;-78
2023/08/24 07:47:52;;;;;;;6.68;6.07;;;;;;;;;;4973274;28;20130;-77
2023/08/24 07:50:18;;;;;;;6.22;5.72;;;;;;;;;;4979885;28;20023;-77
2023/08/24 07:52:44;;;;;;;9.20;5.60;;;;;;;;;;4985819;28;20023;-76
2023/08/24 07:55:11;;;;;;;6.30;5.80;;;;;;;;;;4982766;28;20050;-79
2023/08/24 07:57:37;;;;;;;5.85;5.35;;;;;;;;;;4980813;28;20027;-76
2023/08/24 08:00:04;;;;;;;5.22;4.88;;;;;;;;;;4979898;28;20034;-77
2023/08/24 08:02:32;;;;;;;5.55;5.05;;;;;;;;;;4978173;28;20109;-78
2023/08/24 08:04:59;;;;;;;5.47;5.07;;;;;;;;;;4986534;28;20471;-77
2023/08/24 08:07:25;;;;;;;5.15;4.75;;;;;;;;;;4979877;28;20019;-77
2023/08/24 08:09:51;;;;;;;6.20;4.95;;;;;;;;;;4962127;28;20023;-77
2023/08/24 08:12:17;;;;;;;5.28;4.80;;;;;;;;;;4977968;28;20043;-77
2023/08/24 08:14:43;;;;;;;5.00;4.60;;;;;;;;;;4977155;28;20035;-78
2023/08/24 08:17:10;;;;;;;5.18;4.78;;;;;;;;;;4977926;28;20164;-77
2023/08/24 08:19:37;;;;;;;5.90;5.22;;;;;;;;;;4978544;28;20029;-77
2023/08/24 08:22:04;;;;;;;5.25;4.85;;;;;;;;;;4978183;28;20038;-77
2023/08/24 08:24:30;;;;;;;5.00;4.63;;;;;;;;;;4961177;28;20108;-77
2023/08/24 08:26:56;;;;;;;5.60;5.20;;;;;;;;;;4979738;28;20047;-78
2023/08/24 08:29:22;;;;;;;6.05;5.50;;;;;;;;;;4978355;28;20031;-78
2023/08/24 08:31:48;;;;;;;6.93;5.55;;;;;;;;;;4978990;28;20023;-77
2023/08/24 08:34:14;;;;;;;7.32;6.63;;;;;;;;;;4994770;28;20038;-76
2023/08/24 08:36:41;;;;;;;6.50;6.00;;;;;;;;;;4976970;28;20031;-78
2023/08/24 08:39:08;;;;;;;6.60;6.00;;;;;;;;;;4978379;28;20054;-77
2023/08/24 08:41:35;;;;;;;6.15;5.65;;;;;;;;;;4978557;28;20025;-77
2023/08/24 08:44:06;;;;;;;5.35;4.95;;;;;;;;;;4952678;28;20103;-77
2023/08/24 08:46:33;;;;;;;6.05;5.55;;;;;;;;;;4959625;28;20105;-77
2023/08/24 08:49:01;;;;;;;5.47;5.07;;;;;;;;;;4975643;28;20047;-76
2023/08/24 08:51:30;;;;;;;5.50;5.10;;;;;;;;;;4985782;28;20042;-76
2023/08/24 08:53:57;;;;;;;5.32;4.97;;;;;;;;;;4986049;28;20082;-76
2023/08/24 08:56:23;;;;;;;5.78;5.28;;;;;;;;;;4988170;28;20034;-77
2023/08/24 08:58:54;;;;;;;6.38;5.88;;;;;;;;;;4974954;28;20478;-78
2023/08/24 09:01:20;;;;;;;;;;;;;;;;;;4967058;28;20030;-77
2023/08/24 09:03:47;;;;;;;6.40;5.90;;;;;;;;;;4991313;28;20113;-77
2023/08/24 09:06:13;;;;;;;7.53;6.13;;;;;;;;;;4982332;28;20066;-77
2023/08/24 09:08:39;;;;;;;7.95;6.80;;;;;;;;;;4977085;28;20046;-78
2023/08/24 09:11:08;;;;;;;8.38;6.32;;;;;;;;;;4976832;28;20374;-76
2023/08/24 09:13:34;;;;;;;7.32;6.72;;;;;;;;;;4959998;28;20566;-77
2023/08/24 09:16:07;;;;;;;8.63;6.20;;;;;;;;;;4978487;28;20037;-76
2023/08/24 09:18:40;;;;;;;7.93;6.18;;;;;;;;;;4978198;28;20034;-77
2023/08/24 09:21:09;;;;;;;6.78;6.15;;;;;;;;;;4977176;28;20037;-77
2023/08/24 09:23:35;;;;;;;5.97;5.47;;;;;;;;;;4976708;28;20398;-77
2023/08/24 09:26:02;;;;;;;6.13;5.63;;;;;;;;;;4977283;28;20019;-77
2023/08/24 09:28:28;;;;;;;6.82;6.05;;;;;;;;;;4976926;28;20027;-77
2023/08/24 09:30:54;;;;;;;6.38;5.88;;;;;;;;;;4976816;28;20367;-78
2023/08/24 09:33:22;;;;;;;6.47;5.88;;;;;;;;;;4960966;28;20508;-78
2023/08/24 09:35:54;;;;;;;5.90;5.40;;;;;;;;;;4984489;28;20441;-78
2023/08/24 09:38:21;;;;;;;5.95;5.47;;;;;;;;;;4978297;28;20027;-78
2023/08/24 09:40:51;;;;;;;8.23;6.22;;;;;;;;;;4977573;28;20034;-77
2023/08/24 09:43:17;;;;;;;6.65;6.10;;;;;;;;;;4977201;28;20093;-77
2023/08/24 09:45:53;;;;;;;6.88;5.55;;;;;;;;;;4959594;28;20033;-77
2023/08/24 09:48:20;;;;;;;7.53;6.72;;;;;;;;;;4982037;28;20046;-77
2023/08/24 09:50:47;;;;;;;6.85;6.25;;;;;;;;;;4977988;28;20506;-77
2023/08/24 09:53:17;;;;;;;6.72;5.82;;;;;;;;;;4978930;28;20045;-77
2023/08/24 09:55:44;;;;;;;6.90;6.30;;;;;;;;;;4977993;28;20454;-77
2023/08/24 09:58:11;;;;;;;6.57;6.07;;;;;;;;;;4978103;28;20035;-77
2023/08/24 10:00:38;;;;;;;6.65;5.82;;;;;;;;;;4978234;28;20043;-77
2023/08/24 10:03:04;;;;;;;6.25;5.80;;;;;;;;;;4985170;28;20390;-77
2023/08/24 10:05:31;;;;;;;6.72;6.13;;;;;;;;;;4984093;28;20026;-77
2023/08/24 10:07:58;;;;;;;6.30;5.80;;;;;;;;;;4978039;28;20035;-77
2023/08/24 10:10:27;;;;;;;6.30;5.80;;;;;;;;;;4980748;28;20522;-78
2023/08/24 10:12:56;;;;;;;6.63;5.93;;;;;;;;;;4978650;28;20034;-78
2023/08/24 10:15:23;;;;;;;6.38;5.85;;;;;;;;;;4962586;28;20031;-78
2023/08/24 10:17:50;;;;;;;5.75;5.25;;;;;;;;;;4978925;28;20031;-78
2023/08/24 10:20:18;;;;;;;5.53;5.10;;;;;;;;;;4961186;28;20027;-77
2023/08/24 10:22:44;;;;;;;5.90;5.18;;;;;;;;;;4961348;28;20023;-78
2023/08/24 10:25:10;;;;;;;5.80;5.30;;;;;;;;;;4977785;28;20042;-77
2023/08/24 10:27:37;;;;;;;6.13;5.63;;;;;;;;;;4961029;28;20170;-77
2023/08/24 10:30:03;;;;;;;5.63;5.22;;;;;;;;;;4977265;28;20041;-77
2023/08/24 10:32:30;;;;;;;5.50;5.10;;;;;;;;;;4984366;28;20022;-78
2023/08/24 10:34:56;;;;;;;5.97;5.40;;;;;;;;;;4981037;28;20026;-76
2023/08/24 10:37:26;;;;;;;5.03;4.72;;;;;;;;;;5006928;28;20049;-77
2023/08/24 10:39:53;;;;;;;5.15;4.65;;;;;;;;;;4991417;28;20058;-77
2023/08/24 10:42:20;;;;;;;5.35;4.95;;;;;;;;;;4987825;28;20033;-77
2023/08/24 10:44:47;;;;;;;4.60;4.30;;;;;;;;;;4987089;28;20031;-77
2023/08/24 10:47:14;;;;;;;5.15;4.75;;;;;;;;;;4979099;28;20027;-77
2023/08/24 10:49:44;;;;;;;5.90;5.10;;;;;;;;;;4979888;28;20022;-78
2023/08/24 10:52:20;;;;;;;5.60;5.20;;;;;;;;;;4961796;28;20054;-77
2023/08/24 10:54:48;;;;;;;6.65;6.00;;;;;;;;;;4980978;28;20062;-77
2023/08/24 10:57:27;;;;;;;7.65;5.70;;;;;;;;;;4980378;28;20115;-77
2023/08/24 11:00:05;;;;;;;5.63;5.07;;;;;;;;;;4981305;28;20041;-77
2023/08/24 11:02:32;;;;;;;5.85;5.35;;;;;;;;;;4983102;28;20110;-78
2023/08/24 11:05:05;;;;;;;5.28;4.82;;;;;;;;;;4981182;28;20026;-78
2023/08/24 11:07:31;;;;;;;5.68;5.10;;;;;;;;;;4989731;28;20445;-78
2023/08/24 11:09:57;;;;;;;5.13;4.72;;;;;;;;;;5019852;28;20041;-78
2023/08/24 11:12:24;;;;;;;4.28;3.97;;;;;;;;;;5017724;28;20502;-76
2023/08/24 11:15:01;;;;;;;4.20;3.90;;;;;;;;;;5011727;28;20030;-76
2023/08/24 11:17:33;;;;;;;4.32;3.88;;;;;;;;;;4998586;28;20023;-77
2023/08/24 11:19:59;;;;;;;4.90;4.50;;;;;;;;;;4998706;28;20041;-77
2023/08/24 11:22:25;;;;;;;4.80;4.40;;;;;;;;;;4989370;28;20066;-78
2023/08/24 11:24:51;;;;;;;4.78;4.47;;;;;;;;;;4981610;28;20035;-78
2023/08/24 11:27:18;;;;;;;6.20;4.28;;;;;;;;;;4981015;28;20022;-77
2023/08/24 11:29:44;;;;;;;5.85;4.28;;;;;;;;;;4980408;28;20030;-78
2023/08/24 11:32:10;;;;;;;6.20;4.55;;;;;;;;;;4961928;28;20103;-77
2023/08/24 11:34:38;;;;;;;7.00;4.85;;;;;;;;;;4998624;28;20470;-77
2023/08/24 11:37:04;;;;;;;4.82;4.45;;;;;;;;;;4999000;28;20115;-77
2023/08/24 11:39:33;;;;;;;5.13;4.30;;;;;;;;;;4980468;28;20473;-77
2023/08/24 11:42:00;;;;;;;4.85;4.40;;;;;;;;;;4979766;28;20027;-77
2023/08/24 11:44:26;;;;;;;4.88;4.38;;;;;;;;;;4980691;28;20037;-78
2023/08/24 11:46:53;;;;;;;3.95;3.65;;;;;;;;;;4962859;28;20125;-77
2023/08/24 11:49:19;;;;;;;4.25;3.85;;;;;;;;;;4981131;28;20019;-78
2023/08/24 11:51:45;;;;;;;4.53;4.05;;;;;;;;;;4980717;28;20042;-77
2023/08/24 11:54:12;;;;;;;4.47;4.07;;;;;;;;;;4962612;28;20035;-78
2023/08/24 11:56:42;;;;;;;4.38;3.97;;;;;;;;;;4980756;28;20035;-78
2023/08/24 11:59:11;;;;;;;5.20;3.90;;;;;;;;;;4980288;28;20050;-77
2023/08/24 12:01:38;;;;;;;4.25;3.88;;;;;;;;;;4979201;28;20037;-78
2023/08/24 12:04:05;;;;;;;4.28;3.78;;;;;;;;;;4979261;28;20054;-77
2023/08/24 12:06:31;;;;;;;4.47;3.60;;;;;;;;;;4999154;28;20022;-78
2023/08/24 12:08:57;;;;;;;4.97;3.45;;;;;;;;;;4967517;28;20284;-77
2023/08/24 12:11:25;;;;;;;4.35;3.28;;;;;;;;;;4962911;28;20018;-78
2023/08/24 12:13:52;;;;;;;3.47;3.20;;;;;;;;;;4979654;28;20058;-78
2023/08/24 12:16:19;;;;;;;3.75;3.03;;;;;;;;;;4980260;28;20031;-78
2023/08/24 12:18:48;;;;;;;3.53;2.80;;;;;;;;;;4983437;28;20026;-77
2023/08/24 12:21:15;;;;;;;3.00;2.67;;;;;;;;;;4988041;28;20490;-77
2023/08/24 12:23:41;;;;;;;3.03;2.60;;;;;;;;;;4980909;28;20086;-78
2023/08/24 12:26:07;;;;;;;3.85;3.13;;;;;;;;;;4981674;28;20025;-78
2023/08/24 12:28:34;;;;;;;3.70;3.22;;;;;;;;;;4979125;28;20027;-78
2023/08/24 12:31:03;;;;;;;4.72;3.47;;;;;;;;;;4960355;28;20046;-78
2023/08/24 12:33:29;;;;;;;3.85;3.00;;;;;;;;;;4969653;28;20581;-77
2023/08/24 12:35:56;;;;;;;4.00;3.17;;;;;;;;;;4998316;28;20038;-77
2023/08/24 12:38:23;;;;;;;3.42;2.53;;;;;;;;;;4987433;28;20031;-78
2023/08/24 12:40:49;;;;;;;3.00;2.80;;;;;;;;;;4979557;28;20027;-78
2023/08/24 12:43:16;;;;;;;3.67;3.28;;;;;;;;;;4979718;28;20475;-78
2023/08/24 12:45:42;;;;;;;3.00;2.80;;;;;;;;;;4961425;28;20034;-77
2023/08/24 12:48:08;;;;;;;3.03;2.80;;;;;;;;;;4962603;28;20109;-78
2023/08/24 12:50:35;;;;;;;4.13;2.80;;;;;;;;;;4979232;28;20033;-77
2023/08/24 12:53:02;;;;;;;4.03;3.50;;;;;;;;;;4970166;28;20019;-75
2023/08/24 12:55:28;;;;;;;3.25;2.80;;;;;;;;;;4963439;28;20031;-77
2023/08/24 12:57:54;;;;;;;2.78;2.58;;;;;;;;;;4980308;28;20547;-77
2023/08/24 13:00:21;;;;;;;5.65;3.22;;;;;;;;;;4980538;28;20027;-77
2023/08/24 13:02:47;;;;;;;3.17;2.88;;;;;;;;;;4981386;28;20046;-77
2023/08/24 13:05:13;;;;;;;2.90;2.70;;;;;;;;;;4994759;28;20125;-77
2023/08/24 13:07:39;;;;;;;4.70;3.35;;;;;;;;;;4996089;28;20059;-77
2023/08/24 13:10:06;;;;;;;2.90;2.67;;;;;;;;;;4990230;28;20022;-77
2023/08/24 13:12:33;;;;;;;3.30;3.00;;;;;;;;;;4978101;28;20034;-78
2023/08/24 13:14:59;;;;;;;6.32;3.67;;;;;;;;;;4977161;28;20046;-77
2023/08/24 13:17:25;;;;;;;5.28;3.90;;;;;;;;;;4975348;28;20085;-78
2023/08/24 13:19:51;;;;;;;4.13;3.75;;;;;;;;;;4977920;28;20042;-78
2023/08/24 13:22:17;;;;;;;4.00;3.60;;;;;;;;;;4979632;28;20069;-77
2023/08/24 13:24:44;;;;;;;4.00;3.70;;;;;;;;;;4989985;28;20049;-77
2023/08/24 13:27:11;;;;;;;4.40;4.00;;;;;;;;;;4990617;28;20030;-77
2023/08/24 13:29:37;;;;;;;4.45;3.75;;;;;;;;;;4966195;28;20034;-78
2023/08/24 13:32:03;;;;;;;3.80;3.50;;;;;;;;;;4982197;28;20023;-78
2023/08/24 13:34:30;;;;;;;4.28;3.78;;;;;;;;;;5000347;28;20030;-78
2023/08/24 13:36:57;;;;;;;5.07;4.57;;;;;;;;;;5002100;28;20026;-77
2023/08/24 13:39:24;;;;;;;4.50;3.92;;;;;;;;;;4980084;28;20027;-78
2023/08/24 13:41:50;;;;;;;4.60;4.05;;;;;;;;;;4980669;28;20026;-78
2023/08/24 13:44:16;;;;;;;5.53;4.43;;;;;;;;;;4961213;28;20023;-78
2023/08/24 13:46:42;;;;;;;6.35;4.30;;;;;;;;;;4980555;28;20041;-79
2023/08/24 13:49:08;;;;;;;5.18;4.55;;;;;;;;;;4979869;28;20031;-78
2023/08/24 13:51:34;;;;;;;6.05;4.20;;;;;;;;;;4979484;28;20022;-78
2023/08/24 13:54:00;;;;;;;6.85;4.90;;;;;;;;;;4980391;28;20074;-78
2023/08/24 13:56:27;;;;;;;12.35;5.30;;;;;;;;;;4979587;28;20027;-79
2023/08/24 13:58:53;;;;;;;11.40;5.65;;;;;;;;;;4986832;28;20041;-78
2023/08/24 14:01:19;;;;;;;11.25;4.72;;;;;;;;;;4980705;28;20073;-78
2023/08/24 14:03:45;;;;;;;9.77;4.88;;;;;;;;;;4991593;28;20026;-80
2023/08/24 14:06:12;;;;;;;8.15;4.70;;;;;;;;;;4999796;28;20028;-78
2023/08/24 14:08:38;;;;;;;6.85;4.93;;;;;;;;;;4979700;28;20118;-78
2023/08/24 14:11:04;;;;;;;8.02;4.53;;;;;;;;;;4959289;28;20490;-78
2023/08/24 14:13:31;;;;;;;5.57;5.00;;;;;;;;;;4977852;28;20033;-77
2023/08/24 14:15:57;;;;;;;6.80;4.68;;;;;;;;;;4961362;28;20389;-77
2023/08/24 14:18:23;;;;;;;4.90;4.47;;;;;;;;;;4958988;28;20045;-77
2023/08/24 14:20:49;;;;;;;5.10;4.63;;;;;;;;;;4976860;28;20039;-79
2023/08/24 14:23:15;;;;;;;5.20;4.70;;;;;;;;;;4977381;28;20030;-77
2023/08/24 14:25:42;;;;;;;4.30;4.00;;;;;;;;;;4976317;28;20022;-78
2023/08/24 14:28:08;;;;;;;6.57;4.72;;;;;;;;;;4978919;28;20023;-77
2023/08/24 14:30:34;;;;;;;5.82;5.13;;;;;;;;;;4957632;28;20043;-77
2023/08/24 14:33:00;;;;;;;5.18;4.63;;;;;;;;;;4988323;28;20022;-77
2023/08/24 14:35:27;;;;;;;5.35;4.82;;;;;;;;;;4984108;28;20057;-77
2023/08/24 14:37:53;;;;;;;6.97;5.18;;;;;;;;;;4986660;28;20023;-77
2023/08/24 14:40:19;;;;;;;7.55;4.22;;;;;;;;;;4980953;28;20026;-78